sensor_id;sensor_type;location;lat;lon;timestamp;temperature;humidity
4293;DHT22;2160;51.172;6.808;2023-08-06T04:00:29;18.90;99.90
4293;DHT22;2160;51.172;6.808;2023-08-06T04:02:56;18.90;99.90
4293;DHT22;2160;51.172;6.808;2023-08-06T04:05:23;18.80;99.90
4293;DHT22;2160;51.172;6.808;2023-08-06T04:07:51;18.90;99.90
4293;DHT22;2160;51.172;6.808;2023-08-06T04:10:18;18.80;99.90
4293;DHT22;2160;51.172;6.808;2023-08-06T04:12:45;18.80;99.90
4293;DHT22;2160;51.172;6.808;2023-08-06T04:15:12;18.80;99.90
4293;DHT22;2160;51.172;6.808;2023-08-06T04:17:40;18.90;99.90
4293;DHT22;2160;51.172;6.808;2023-08-06T04:20:08;18.90;99.90
4293;DHT22;2160;51.172;6.808;2023-08-06T04:22:37;19.10;99.90
4293;DHT22;2160;51.172;6.808;2023-08-06T04:25:05;19.00;99.90
4293;DHT22;2160;51.172;6.808;2023-08-06T04:27:33;19.00;99.90
4293;DHT22;2160;51.172;6.808;2023-08-06T04:30:03;19.10;99.90
4293;DHT22;2160;51.172;6.808;2023-08-06T04:32:30;19.20;99.90
4293;DHT22;2160;51.172;6.808;2023-08-06T04:34:59;19.30;99.90
4293;DHT22;2160;51.172;6.808;2023-08-06T04:37:26;19.20;99.90
4293;DHT22;2160;51.172;6.808;2023-08-06T04:39:53;19.30;99.90
4293;DHT22;2160;51.172;6.808;2023-08-06T04:42:20;19.30;99.90
4293;DHT22;2160;51.172;6.808;2023-08-06T04:44:47;19.30;99.90
4293;DHT22;2160;51.172;6.808;2023-08-06T04:47:14;18.90;99.90
4293;DHT22;2160;51.172;6.808;2023-08-06T04:49:41;18.90;99.90
4293;DHT22;2160;51.172;6.808;2023-08-06T04:52:09;18.70;99.90
4293;DHT22;2160;51.172;6.808;2023-08-06T04:54:36;18.70;99.90
4293;DHT22;2160;51.172;6.808;2023-08-06T04:57:04;18.80;99.90
4293;DHT22;2160;51.172;6.808;2023-08-06T04:59:31;18.80;99.90
4293;DHT22;2160;51.172;6.808;2023-08-06T05:01:58;18.80;99.90
4293;DHT22;2160;51.172;6.808;2023-08-06T05:04:25;18.70;99.90
4293;DHT22;2160;51.172;6.808;2023-08-06T05:06:52;18.80;99.90
4293;DHT22;2160;51.172;6.808;2023-08-06T05:09:20;18.90;99.90
4293;DHT22;2160;51.172;6.808;2023-08-06T05:11:47;19.00;99.90
4293;DHT22;2160;51.172;6.808;2023-08-06T05:14:14;19.00;99.90
4293;DHT22;2160;51.172;6.808;2023-08-06T05:16:41;19.10;99.90
4293;DHT22;2160;51.172;6.808;2023-08-06T05:19:08;19.10;99.90
4293;DHT22;2160;51.172;6.808;2023-08-06T05:21:35;19.20;99.90
4293;DHT22;2160;51.172;6.808;2023-08-06T05:24:02;19.20;99.90
4293;DHT22;2160;51.172;6.808;2023-08-06T05:26:31;19.30;99.90
4293;DHT22;2160;51.172;6.808;2023-08-06T05:28:58;19.20;99.90
4293;DHT22;2160;51.172;6.808;2023-08-06T05:31:26;19.10;99.90
4293;DHT22;2160;51.172;6.808;2023-08-06T05:33:54;19.20;99.90
4293;DHT22;2160;51.172;6.808;2023-08-06T05:36:21;19.30;99.90
4293;DHT22;2160;51.172;6.808;2023-08-06T05:38:48;19.40;99.90
4293;DHT22;2160;51.172;6.808;2023-08-06T05:41:15;19.60;99.90
4293;DHT22;2160;51.172;6.808;2023-08-06T05:43:43;19.70;99.90
4293;DHT22;2160;51.172;6.808;2023-08-06T05:46:10;19.70;99.90
4293;DHT22;2160;51.172;6.808;2023-08-06T05:48:37;19.70;99.90
4293;DHT22;2160;51.172;6.808;2023-08-06T05:51:05;19.80;99.90
4293;DHT22;2160;51.172;6.808;2023-08-06T05:53:33;19.80;99.90
4293;DHT22;2160;51.172;6.808;2023-08-06T05:56:00;19.80;99.90
4293;DHT22;2160;51.172;6.808;2023-08-06T05:58:27;19.90;99.90
4293;DHT22;2160;51.172;6.808;2023-08-06T06:00:56;20.00;99.90
4293;DHT22;2160;51.172;6.808;2023-08-06T06:03:23;20.00;99.90
4293;DHT22;2160;51.172;6.808;2023-08-06T06:05:50;19.90;99.90
4293;DHT22;2160;51.172;6.808;2023-08-06T06:08:17;20.00;99.90
4293;DHT22;2160;51.172;6.808;2023-08-06T06:10:44;20.00;99.90
4293;DHT22;2160;51.172;6.808;2023-08-06T06:13:10;19.90;99.90
4293;DHT22;2160;51.172;6.808;2023-08-06T06:15:37;20.00;99.90
4293;DHT22;2160;51.172;6.808;2023-08-06T06:18:06;20.10;99.90
4293;DHT22;2160;51.172;6.808;2023-08-06T06:20:33;20.30;99.90
4293;DHT22;2160;51.172;6.808;2023-08-06T06:23:00;20.40;99.90
4293;DHT22;2160;51.172;6.808;2023-08-06T06:25:27;20.50;99.90
4293;DHT22;2160;51.172;6.808;2023-08-06T06:27:54;20.50;99.90
4293;DHT22;2160;51.172;6.808;2023-08-06T06:30:21;20.50;99.90
4293;DHT22;2160;51.172;6.808;2023-08-06T06:32:48;20.60;99.90
4293;DHT22;2160;51.172;6.808;2023-08-06T06:35:16;20.50;99.90
4293;DHT22;2160;51.172;6.808;2023-08-06T06:37:43;20.50;99.90
4293;DHT22;2160;51.172;6.808;2023-08-06T06:40:11;20.60;99.90
4293;DHT22;2160;51.172;6.808;2023-08-06T06:42:38;20.80;99.90
4293;DHT22;2160;51.172;6.808;2023-08-06T06:45:08;21.00;99.90
4293;DHT22;2160;51.172;6.808;2023-08-06T06:47:36;20.90;99.90
4293;DHT22;2160;51.172;6.808;2023-08-06T06:50:03;21.10;99.90
4293;DHT22;2160;51.172;6.808;2023-08-06T06:52:32;21.00;99.90
4293;DHT22;2160;51.172;6.808;2023-08-06T06:54:58;21.10;99.90
4293;DHT22;2160;51.172;6.808;2023-08-06T06:57:25;21.10;99.90
4293;DHT22;2160;51.172;6.808;2023-08-06T06:59:52;21.20;99.90
4293;DHT22;2160;51.172;6.808;2023-08-06T07:02:19;21.40;99.90
4293;DHT22;2160;51.172;6.808;2023-08-06T07:04:47;21.50;99.90
4293;DHT22;2160;51.172;6.808;2023-08-06T07:07:14;21.60;99.90
4293;DHT22;2160;51.172;6.808;2023-08-06T07:09:42;21.70;99.90
4293;DHT22;2160;51.172;6.808;2023-08-06T07:12:09;21.80;99.90
4293;DHT22;2160;51.172;6.808;2023-08-06T07:14:36;21.80;99.90
4293;DHT22;2160;51.172;6.808;2023-08-06T07:17:03;22.00;99.90
4293;DHT22;2160;51.172;6.808;2023-08-06T07:19:30;22.10;99.90
4293;DHT22;2160;51.172;6.808;2023-08-06T07:21:57;22.10;99.90
4293;DHT22;2160;51.172;6.808;2023-08-06T07:24:24;22.20;99.90
4293;DHT22;2160;51.172;6.808;2023-08-06T07:26:52;22.20;99.90
4293;DHT22;2160;51.172;6.808;2023-08-06T07:29:19;22.20;99.90
4293;DHT22;2160;51.172;6.808;2023-08-06T07:31:48;22.20;99.90
4293;DHT22;2160;51.172;6.808;2023-08-06T07:34:16;21.80;99.90
4293;DHT22;2160;51.172;6.808;2023-08-06T07:36:43;21.80;99.90
4293;DHT22;2160;51.172;6.808;2023-08-06T07:39:11;22.00;99.90
4293;DHT22;2160;51.172;6.808;2023-08-06T07:41:38;21.90;99.90
4293;DHT22;2160;51.172;6.808;2023-08-06T07:44:06;21.60;99.90
4293;DHT22;2160;51.172;6.808;2023-08-06T07:46:33;21.50;99.90
4293;DHT22;2160;51.172;6.808;2023-08-06T07:49:00;21.60;99.90
4293;DHT22;2160;51.172;6.808;2023-08-06T07:51:28;22.00;99.90
4293;DHT22;2160;51.172;6.808;2023-08-06T07:53:55;22.10;99.90
4293;DHT22;2160;51.172;6.808;2023-08-06T07:56:22;22.20;99.90
4293;DHT22;2160;51.172;6.808;2023-08-06T07:58:49;22.30;99.90
4293;DHT22;2160;51.172;6.808;2023-08-06T08:01:17;22.30;99.90
4293;DHT22;2160;51.172;6.808;2023-08-06T08:03:44;22.10;99.90
4293;DHT22;2160;51.172;6.808;2023-08-06T08:06:12;21.90;99.90
4293;DHT22;2160;51.172;6.808;2023-08-06T08:08:39;21.80;99.90
4293;DHT22;2160;51.172;6.808;2023-08-06T08:11:06;21.90;99.90
4293;DHT22;2160;51.172;6.808;2023-08-06T08:13:33;22.00;99.90
4293;DHT22;2160;51.172;6.808;2023-08-06T08:16:01;21.80;99.90
4293;DHT22;2160;51.172;6.808;2023-08-06T08:18:29;21.80;99.90
4293;DHT22;2160;51.172;6.808;2023-08-06T08:20:57;22.00;99.90
4293;DHT22;2160;51.172;6.808;2023-08-06T08:23:24;21.90;99.90
4293;DHT22;2160;51.172;6.808;2023-08-06T08:25:51;22.10;99.90
4293;DHT22;2160;51.172;6.808;2023-08-06T08:28:18;22.30;99.90
4293;DHT22;2160;51.172;6.808;2023-08-06T08:30:45;22.30;99.90
4293;DHT22;2160;51.172;6.808;2023-08-06T08:33:12;22.20;99.90
4293;DHT22;2160;51.172;6.808;2023-08-06T08:35:41;22.00;99.90
4293;DHT22;2160;51.172;6.808;2023-08-06T08:38:08;21.70;99.90
4293;DHT22;2160;51.172;6.808;2023-08-06T08:40:39;21.80;99.90
4293;DHT22;2160;51.172;6.808;2023-08-06T08:43:11;21.80;99.90
4293;DHT22;2160;51.172;6.808;2023-08-06T08:45:40;21.80;99.90
4293;DHT22;2160;51.172;6.808;2023-08-06T08:48:11;22.10;99.90
4293;DHT22;2160;51.172;6.808;2023-08-06T08:50:42;22.40;99.90
4293;DHT22;2160;51.172;6.808;2023-08-06T08:53:10;22.60;99.90
4293;DHT22;2160;51.172;6.808;2023-08-06T08:55:38;23.00;99.90
4293;DHT22;2160;51.172;6.808;2023-08-06T08:58:06;22.80;99.90
4293;DHT22;2160;51.172;6.808;2023-08-06T09:00:33;22.70;99.90
4293;DHT22;2160;51.172;6.808;2023-08-06T09:03:02;22.80;99.90
4293;DHT22;2160;51.172;6.808;2023-08-06T09:05:31;22.80;99.90
4293;DHT22;2160;51.172;6.808;2023-08-06T09:08:03;22.70;99.90
4293;DHT22;2160;51.172;6.808;2023-08-06T09:10:31;22.50;99.90
4293;DHT22;2160;51.172;6.808;2023-08-06T09:12:58;22.30;99.90
4293;DHT22;2160;51.172;6.808;2023-08-06T09:15:27;22.40;99.90
4293;DHT22;2160;51.172;6.808;2023-08-06T09:17:55;22.40;99.90
4293;DHT22;2160;51.172;6.808;2023-08-06T09:20:22;22.30;99.90
4293;DHT22;2160;51.172;6.808;2023-08-06T09:22:49;22.30;99.90
4293;DHT22;2160;51.172;6.808;2023-08-06T09:25:23;22.20;99.90
4293;DHT22;2160;51.172;6.808;2023-08-06T09:27:51;22.30;99.90
4293;DHT22;2160;51.172;6.808;2023-08-06T09:30:29;22.00;99.90
4293;DHT22;2160;51.172;6.808;2023-08-06T09:32:57;22.40;99.90
4293;DHT22;2160;51.172;6.808;2023-08-06T09:35:25;22.70;99.90
4293;DHT22;2160;51.172;6.808;2023-08-06T09:37:54;23.00;99.90
4293;DHT22;2160;51.172;6.808;2023-08-06T09:40:31;22.90;99.90
4293;DHT22;2160;51.172;6.808;2023-08-06T09:42:58;22.00;99.90
4293;DHT22;2160;51.172;6.808;2023-08-06T09:45:30;21.20;99.90
4293;DHT22;2160;51.172;6.808;2023-08-06T09:47:57;20.40;99.90
4293;DHT22;2160;51.172;6.808;2023-08-06T09:50:29;20.00;99.90
4293;DHT22;2160;51.172;6.808;2023-08-06T09:52:56;19.70;99.90
4293;DHT22;2160;51.172;6.808;2023-08-06T09:55:24;19.70;99.90
4293;DHT22;2160;51.172;6.808;2023-08-06T09:57:54;19.70;99.90
4293;DHT22;2160;51.172;6.808;2023-08-06T10:00:22;19.50;99.90
4293;DHT22;2160;51.172;6.808;2023-08-06T10:02:49;19.50;99.90
4293;DHT22;2160;51.172;6.808;2023-08-06T10:05:21;19.30;99.90
4293;DHT22;2160;51.172;6.808;2023-08-06T10:07:49;19.10;99.90
4293;DHT22;2160;51.172;6.808;2023-08-06T10:10:16;19.00;99.90
4293;DHT22;2160;51.172;6.808;2023-08-06T10:12:48;19.00;99.90
4293;DHT22;2160;51.172;6.808;2023-08-06T10:15:20;18.80;99.90
4293;DHT22;2160;51.172;6.808;2023-08-06T10:17:51;18.90;99.90
4293;DHT22;2160;51.172;6.808;2023-08-06T10:20:19;18.90;99.90
4293;DHT22;2160;51.172;6.808;2023-08-06T10:23:00;18.90;99.90
4293;DHT22;2160;51.172;6.808;2023-08-06T10:25:30;19.00;99.90
4293;DHT22;2160;51.172;6.808;2023-08-06T10:27:58;19.00;99.90
4293;DHT22;2160;51.172;6.808;2023-08-06T10:30:28;18.80;99.90
4293;DHT22;2160;51.172;6.808;2023-08-06T10:32:57;18.70;99.90
4293;DHT22;2160;51.172;6.808;2023-08-06T10:35:30;18.70;99.90
4293;DHT22;2160;51.172;6.808;2023-08-06T10:38:03;18.40;99.90
4293;DHT22;2160;51.172;6.808;2023-08-06T10:40:31;18.20;99.90
4293;DHT22;2160;51.172;6.808;2023-08-06T10:43:01;18.30;99.90
4293;DHT22;2160;51.172;6.808;2023-08-06T10:45:30;18.20;99.90
4293;DHT22;2160;51.172;6.808;2023-08-06T10:48:00;18.00;99.90
4293;DHT22;2160;51.172;6.808;2023-08-06T10:50:27;17.90;99.90
4293;DHT22;2160;51.172;6.808;2023-08-06T10:52:54;17.70;99.90
4293;DHT22;2160;51.172;6.808;2023-08-06T10:55:25;17.50;99.90
4293;DHT22;2160;51.172;6.808;2023-08-06T10:57:53;17.40;99.90
4293;DHT22;2160;51.172;6.808;2023-08-06T11:00:21;17.40;99.90
4293;DHT22;2160;51.172;6.808;2023-08-06T11:02:51;17.40;99.90
4293;DHT22;2160;51.172;6.808;2023-08-06T11:05:18;17.30;99.90
4293;DHT22;2160;51.172;6.808;2023-08-06T11:07:45;17.40;99.90
4293;DHT22;2160;51.172;6.808;2023-08-06T11:10:13;17.50;99.90
4293;DHT22;2160;51.172;6.808;2023-08-06T11:12:41;17.40;99.90
4293;DHT22;2160;51.172;6.808;2023-08-06T11:15:08;17.60;99.90
4293;DHT22;2160;51.172;6.808;2023-08-06T11:17:37;17.60;99.90
4293;DHT22;2160;51.172;6.808;2023-08-06T11:20:08;17.60;99.90
4293;DHT22;2160;51.172;6.808;2023-08-06T11:22:36;17.50;99.90
4293;DHT22;2160;51.172;6.808;2023-08-06T11:25:05;17.60;99.90
4293;DHT22;2160;51.172;6.808;2023-08-06T11:27:32;17.50;99.90
4293;DHT22;2160;51.172;6.808;2023-08-06T11:29:59;17.50;99.90
4293;DHT22;2160;51.172;6.808;2023-08-06T11:32:26;17.50;99.90
4293;DHT22;2160;51.172;6.808;2023-08-06T11:34:54;17.50;99.90
4293;DHT22;2160;51.172;6.808;2023-08-06T11:37:23;17.50;99.90
4293;DHT22;2160;51.172;6.808;2023-08-06T11:39:51;17.70;99.90
4293;DHT22;2160;51.172;6.808;2023-08-06T11:42:19;17.60;99.90
4293;DHT22;2160;51.172;6.808;2023-08-06T11:44:46;17.60;99.90
4293;DHT22;2160;51.172;6.808;2023-08-06T11:47:14;17.60;99.90
4293;DHT22;2160;51.172;6.808;2023-08-06T11:49:43;17.70;99.90
4293;DHT22;2160;51.172;6.808;2023-08-06T11:52:19;17.70;99.90
4293;DHT22;2160;51.172;6.808;2023-08-06T11:54:59;17.60;99.90
4293;DHT22;2160;51.172;6.808;2023-08-06T11:57:26;17.40;99.90
4293;DHT22;2160;51.172;6.808;2023-08-06T11:59:54;17.40;99.90
4293;DHT22;2160;51.172;6.808;2023-08-06T12:02:21;17.50;99.90
4293;DHT22;2160;51.172;6.808;2023-08-06T12:05:04;17.50;99.90
4293;DHT22;2160;51.172;6.808;2023-08-06T12:07:32;17.70;99.90
4293;DHT22;2160;51.172;6.808;2023-08-06T12:10:01;17.50;99.90
4293;DHT22;2160;51.172;6.808;2023-08-06T12:12:28;17.50;99.90
4293;DHT22;2160;51.172;6.808;2023-08-06T12:14:55;17.50;99.90
4293;DHT22;2160;51.172;6.808;2023-08-06T12:17:22;17.50;99.90
4293;DHT22;2160;51.172;6.808;2023-08-06T12:19:49;17.40;99.90
4293;DHT22;2160;51.172;6.808;2023-08-06T12:22:17;17.40;99.90
4293;DHT22;2160;51.172;6.808;2023-08-06T12:24:45;17.60;99.90
4293;DHT22;2160;51.172;6.808;2023-08-06T12:27:14;17.70;99.90
4293;DHT22;2160;51.172;6.808;2023-08-06T12:29:42;17.50;99.90
4293;DHT22;2160;51.172;6.808;2023-08-06T12:32:09;17.50;99.90
4293;DHT22;2160;51.172;6.808;2023-08-06T12:34:38;17.50;99.90
4293;DHT22;2160;51.172;6.808;2023-08-06T12:37:05;17.50;99.90
4293;DHT22;2160;51.172;6.808;2023-08-06T12:39:33;17.50;99.90
4293;DHT22;2160;51.172;6.808;2023-08-06T12:42:01;17.40;99.90
4293;DHT22;2160;51.172;6.808;2023-08-06T12:44:29;17.50;99.90
4293;DHT22;2160;51.172;6.808;2023-08-06T12:46:57;17.70;99.90
4293;DHT22;2160;51.172;6.808;2023-08-06T12:49:25;17.80;99.90
4293;DHT22;2160;51.172;6.808;2023-08-06T12:51:53;17.80;99.90
4293;DHT22;2160;51.172;6.808;2023-08-06T12:54:20;17.80;99.90
4293;DHT22;2160;51.172;6.808;2023-08-06T12:56:48;17.80;99.90
4293;DHT22;2160;51.172;6.808;2023-08-06T12:59:16;17.80;99.90
4293;DHT22;2160;51.172;6.808;2023-08-06T13:01:45;17.70;99.90
4293;DHT22;2160;51.172;6.808;2023-08-06T13:04:14;17.50;99.90
4293;DHT22;2160;51.172;6.808;2023-08-06T13:06:41;17.60;99.90
4293;DHT22;2160;51.172;6.808;2023-08-06T13:09:08;17.70;99.90
4293;DHT22;2160;51.172;6.808;2023-08-06T13:11:36;17.80;99.90
4293;DHT22;2160;51.172;6.808;2023-08-06T13:14:07;17.70;99.90
4293;DHT22;2160;51.172;6.808;2023-08-06T13:16:35;17.60;99.90
4293;DHT22;2160;51.172;6.808;2023-08-06T13:19:04;17.40;99.90
4293;DHT22;2160;51.172;6.808;2023-08-06T13:21:32;17.40;99.90
4293;DHT22;2160;51.172;6.808;2023-08-06T13:24:01;17.40;99.90
4293;DHT22;2160;51.172;6.808;2023-08-06T13:26:28;17.40;99.90
4293;DHT22;2160;51.172;6.808;2023-08-06T13:28:57;17.40;99.90
4293;DHT22;2160;51.172;6.808;2023-08-06T13:31:25;17.50;99.90
4293;DHT22;2160;51.172;6.808;2023-08-06T13:33:52;17.60;99.90
4293;DHT22;2160;51.172;6.808;2023-08-06T13:36:22;17.60;99.90
4293;DHT22;2160;51.172;6.808;2023-08-06T13:38:49;17.70;99.90
4293;DHT22;2160;51.172;6.808;2023-08-06T13:41:16;17.80;99.90
4293;DHT22;2160;51.172;6.808;2023-08-06T13:43:43;17.80;99.90
4293;DHT22;2160;51.172;6.808;2023-08-06T13:46:11;17.90;99.90
4293;DHT22;2160;51.172;6.808;2023-08-06T13:48:42;17.80;99.90
4293;DHT22;2160;51.172;6.808;2023-08-06T13:51:09;17.80;99.90
4293;DHT22;2160;51.172;6.808;2023-08-06T13:53:37;17.70;99.90
4293;DHT22;2160;51.172;6.808;2023-08-06T13:56:04;17.80;99.90
4293;DHT22;2160;51.172;6.808;2023-08-06T13:58:31;17.80;99.90
4293;DHT22;2160;51.172;6.808;2023-08-06T14:00:59;17.80;99.90
4293;DHT22;2160;51.172;6.808;2023-08-06T14:03:26;17.70;99.90
4293;DHT22;2160;51.172;6.808;2023-08-06T14:05:53;17.70;99.90
4293;DHT22;2160;51.172;6.808;2023-08-06T14:08:22;18.00;99.90
4293;DHT22;2160;51.172;6.808;2023-08-06T14:10:50;18.10;99.90
4293;DHT22;2160;51.172;6.808;2023-08-06T14:13:17;18.20;99.90
4293;DHT22;2160;51.172;6.808;2023-08-06T14:15:44;18.10;99.90
4293;DHT22;2160;51.172;6.808;2023-08-06T14:18:12;18.20;99.90
4293;DHT22;2160;51.172;6.808;2023-08-06T14:20:40;18.30;99.90
4293;DHT22;2160;51.172;6.808;2023-08-06T14:23:07;18.60;99.90
4293;DHT22;2160;51.172;6.808;2023-08-06T14:25:34;18.70;99.90
4293;DHT22;2160;51.172;6.808;2023-08-06T14:28:02;18.80;99.90
4293;DHT22;2160;51.172;6.808;2023-08-06T14:30:32;18.90;99.90
4293;DHT22;2160;51.172;6.808;2023-08-06T14:32:59;18.70;99.90
4293;DHT22;2160;51.172;6.808;2023-08-06T14:35:27;18.70;99.90
4293;DHT22;2160;51.172;6.808;2023-08-06T14:37:54;18.70;99.90
4293;DHT22;2160;51.172;6.808;2023-08-06T14:40:21;18.80;99.90
4293;DHT22;2160;51.172;6.808;2023-08-06T14:42:48;18.90;99.90
4293;DHT22;2160;51.172;6.808;2023-08-06T14:45:17;18.90;99.90
4293;DHT22;2160;51.172;6.808;2023-08-06T14:47:44;18.70;99.90
4293;DHT22;2160;51.172;6.808;2023-08-06T14:50:11;18.60;99.90
4293;DHT22;2160;51.172;6.808;2023-08-06T14:52:38;18.60;99.90
4293;DHT22;2160;51.172;6.808;2023-08-06T14:55:05;18.80;99.90
4293;DHT22;2160;51.172;6.808;2023-08-06T14:57:32;19.10;99.90
4293;DHT22;2160;51.172;6.808;2023-08-06T14:59:59;19.10;99.90
4293;DHT22;2160;51.172;6.808;2023-08-06T15:02:28;19.10;99.90
4293;DHT22;2160;51.172;6.808;2023-08-06T15:04:55;19.10;99.90
4293;DHT22;2160;51.172;6.808;2023-08-06T15:07:22;19.10;99.90
4293;DHT22;2160;51.172;6.808;2023-08-06T15:09:49;19.00;99.90
4293;DHT22;2160;51.172;6.808;2023-08-06T15:12:16;19.00;99.90
4293;DHT22;2160;51.172;6.808;2023-08-06T15:14:43;19.30;99.90
4293;DHT22;2160;51.172;6.808;2023-08-06T15:17:10;19.20;99.90
4293;DHT22;2160;51.172;6.808;2023-08-06T15:19:38;19.10;99.90
4293;DHT22;2160;51.172;6.808;2023-08-06T15:22:05;19.10;99.90
4293;DHT22;2160;51.172;6.808;2023-08-06T15:24:32;19.00;99.90
4293;DHT22;2160;51.172;6.808;2023-08-06T15:27:02;18.90;99.90
4293;DHT22;2160;51.172;6.808;2023-08-06T15:29:29;18.70;99.90
4293;DHT22;2160;51.172;6.808;2023-08-06T15:31:56;18.50;99.90
4293;DHT22;2160;51.172;6.808;2023-08-06T15:34:23;18.60;99.90
4293;DHT22;2160;51.172;6.808;2023-08-06T15:36:51;18.90;99.90
4293;DHT22;2160;51.172;6.808;2023-08-06T15:39:18;19.10;99.90
4293;DHT22;2160;51.172;6.808;2023-08-06T15:41:45;19.10;99.90
4293;DHT22;2160;51.172;6.808;2023-08-06T15:44:12;19.00;99.90
4293;DHT22;2160;51.172;6.808;2023-08-06T15:46:39;18.80;99.90
4293;DHT22;2160;51.172;6.808;2023-08-06T15:49:06;18.70;99.90
4293;DHT22;2160;51.172;6.808;2023-08-06T15:51:34;18.70;99.90
4293;DHT22;2160;51.172;6.808;2023-08-06T15:54:03;18.60;99.90
4293;DHT22;2160;51.172;6.808;2023-08-06T15:56:30;18.60;99.90
4293;DHT22;2160;51.172;6.808;2023-08-06T15:58:57;18.40;99.90
4293;DHT22;2160;51.172;6.808;2023-08-06T16:01:24;18.20;99.90
4293;DHT22;2160;51.172;6.808;2023-08-06T16:03:51;18.20;99.90
4293;DHT22;2160;51.172;6.808;2023-08-06T16:06:18;18.10;99.90
4293;DHT22;2160;51.172;6.808;2023-08-06T16:08:45;18.10;99.90
4293;DHT22;2160;51.172;6.808;2023-08-06T16:11:13;18.20;99.90
4293;DHT22;2160;51.172;6.808;2023-08-06T16:13:40;18.30;99.90
4293;DHT22;2160;51.172;6.808;2023-08-06T16:16:07;18.30;99.90
4293;DHT22;2160;51.172;6.808;2023-08-06T16:18:34;18.30;99.90
4293;DHT22;2160;51.172;6.808;2023-08-06T16:21:01;18.40;99.90
4293;DHT22;2160;51.172;6.808;2023-08-06T16:23:28;18.30;99.90
4293;DHT22;2160;51.172;6.808;2023-08-06T16:25:56;18.20;99.90
4293;DHT22;2160;51.172;6.808;2023-08-06T16:28:24;18.10;99.90
4293;DHT22;2160;51.172;6.808;2023-08-06T16:30:54;18.00;99.90
4293;DHT22;2160;51.172;6.808;2023-08-06T16:33:21;18.10;99.90
4293;DHT22;2160;51.172;6.808;2023-08-06T16:35:48;18.20;99.90
4293;DHT22;2160;51.172;6.808;2023-08-06T16:38:15;18.20;99.90
4293;DHT22;2160;51.172;6.808;2023-08-06T16:40:50;18.30;99.90
4293;DHT22;2160;51.172;6.808;2023-08-06T16:43:17;17.90;99.90
4293;DHT22;2160;51.172;6.808;2023-08-06T16:45:46;17.80;99.90
4293;DHT22;2160;51.172;6.808;2023-08-06T16:48:13;17.80;99.90
4293;DHT22;2160;51.172;6.808;2023-08-06T16:50:40;17.80;99.90
4293;DHT22;2160;51.172;6.808;2023-08-06T16:53:07;17.90;99.90
4293;DHT22;2160;51.172;6.808;2023-08-06T16:55:34;17.70;99.90
4293;DHT22;2160;51.172;6.808;2023-08-06T16:58:01;17.80;99.90
4293;DHT22;2160;51.172;6.808;2023-08-06T17:00:28;17.70;99.90
4293;DHT22;2160;51.172;6.808;2023-08-06T17:02:56;17.70;99.90
4293;DHT22;2160;51.172;6.808;2023-08-06T17:05:23;17.70;99.90
4293;DHT22;2160;51.172;6.808;2023-08-06T17:07:50;17.70;99.90
4293;DHT22;2160;51.172;6.808;2023-08-06T17:10:18;17.60;99.90
4293;DHT22;2160;51.172;6.808;2023-08-06T17:12:45;17.80;99.90
4293;DHT22;2160;51.172;6.808;2023-08-06T17:15:14;17.90;99.90
4293;DHT22;2160;51.172;6.808;2023-08-06T17:17:41;17.90;99.90
4293;DHT22;2160;51.172;6.808;2023-08-06T17:20:10;17.80;99.90
4293;DHT22;2160;51.172;6.808;2023-08-06T17:22:37;17.80;99.90
4293;DHT22;2160;51.172;6.808;2023-08-06T17:25:05;17.80;99.90
4293;DHT22;2160;51.172;6.808;2023-08-06T17:27:32;17.80;99.90
4293;DHT22;2160;51.172;6.808;2023-08-06T17:29:59;17.90;99.90
4293;DHT22;2160;51.172;6.808;2023-08-06T17:32:26;17.80;99.90
4293;DHT22;2160;51.172;6.808;2023-08-06T17:34:53;17.60;99.90
4293;DHT22;2160;51.172;6.808;2023-08-06T17:37:21;17.60;99.90
4293;DHT22;2160;51.172;6.808;2023-08-06T17:39:48;17.50;99.90
4293;DHT22;2160;51.172;6.808;2023-08-06T17:42:15;17.60;99.90
4293;DHT22;2160;51.172;6.808;2023-08-06T17:44:42;17.50;99.90
4293;DHT22;2160;51.172;6.808;2023-08-06T17:47:09;17.60;99.90
4293;DHT22;2160;51.172;6.808;2023-08-06T17:49:39;17.50;99.90
4293;DHT22;2160;51.172;6.808;2023-08-06T17:52:06;17.40;99.90
4293;DHT22;2160;51.172;6.808;2023-08-06T17:54:34;17.40;99.90
4293;DHT22;2160;51.172;6.808;2023-08-06T17:57:02;17.40;99.90
4293;DHT22;2160;51.172;6.808;2023-08-06T17:59:29;17.40;99.90
4293;DHT22;2160;51.172;6.808;2023-08-06T18:01:56;17.40;99.90
4293;DHT22;2160;51.172;6.808;2023-08-06T18:04:23;17.40;99.90
4293;DHT22;2160;51.172;6.808;2023-08-06T18:06:50;17.40;99.90
4293;DHT22;2160;51.172;6.808;2023-08-06T18:09:17;17.30;99.90
4293;DHT22;2160;51.172;6.808;2023-08-06T18:11:45;17.20;99.90
4293;DHT22;2160;51.172;6.808;2023-08-06T18:14:12;17.10;99.90
4293;DHT22;2160;51.172;6.808;2023-08-06T18:16:39;17.00;99.90
4293;DHT22;2160;51.172;6.808;2023-08-06T18:19:06;16.90;99.90
4293;DHT22;2160;51.172;6.808;2023-08-06T18:21:33;16.70;99.90
4293;DHT22;2160;51.172;6.808;2023-08-06T18:24:00;16.60;99.90
4293;DHT22;2160;51.172;6.808;2023-08-06T18:26:27;16.60;99.90
4293;DHT22;2160;51.172;6.808;2023-08-06T18:28:56;16.80;99.90
4293;DHT22;2160;51.172;6.808;2023-08-06T18:31:23;16.70;99.90
4293;DHT22;2160;51.172;6.808;2023-08-06T18:33:50;16.80;99.90
4293;DHT22;2160;51.172;6.808;2023-08-06T18:36:17;16.70;99.90
4293;DHT22;2160;51.172;6.808;2023-08-06T18:38:44;16.70;99.90
4293;DHT22;2160;51.172;6.808;2023-08-06T18:41:15;16.70;99.90
4293;DHT22;2160;51.172;6.808;2023-08-06T18:43:42;16.60;99.90
4293;DHT22;2160;51.172;6.808;2023-08-06T18:46:10;16.60;99.90
4293;DHT22;2160;51.172;6.808;2023-08-06T18:48:38;16.70;99.90
4293;DHT22;2160;51.172;6.808;2023-08-06T18:51:05;16.60;99.90
4293;DHT22;2160;51.172;6.808;2023-08-06T18:53:32;16.50;99.90
4293;DHT22;2160;51.172;6.808;2023-08-06T18:55:59;16.50;99.90
4293;DHT22;2160;51.172;6.808;2023-08-06T18:58:26;16.60;99.90
4293;DHT22;2160;51.172;6.808;2023-08-06T19:00:56;16.50;99.90
4293;DHT22;2160;51.172;6.808;2023-08-06T19:03:25;16.50;99.90
4293;DHT22;2160;51.172;6.808;2023-08-06T19:05:52;16.50;99.90
4293;DHT22;2160;51.172;6.808;2023-08-06T19:08:19;16.50;99.90
4293;DHT22;2160;51.172;6.808;2023-08-06T19:10:46;16.50;99.90
4293;DHT22;2160;51.172;6.808;2023-08-06T19:13:13;16.50;99.90
4293;DHT22;2160;51.172;6.808;2023-08-06T19:15:45;16.40;99.90
4293;DHT22;2160;51.172;6.808;2023-08-06T19:18:13;16.40;99.90
4293;DHT22;2160;51.172;6.808;2023-08-06T19:20:42;16.40;99.90
4293;DHT22;2160;51.172;6.808;2023-08-06T19:23:10;16.40;99.90
4293;DHT22;2160;51.172;6.808;2023-08-06T19:25:41;16.30;99.90
4293;DHT22;2160;51.172;6.808;2023-08-06T19:28:09;16.30;99.90
4293;DHT22;2160;51.172;6.808;2023-08-06T19:30:37;16.20;99.90
4293;DHT22;2160;51.172;6.808;2023-08-06T19:33:06;16.20;99.90
4293;DHT22;2160;51.172;6.808;2023-08-06T19:35:33;16.20;99.90
4293;DHT22;2160;51.172;6.808;2023-08-06T19:38:02;16.20;99.90
4293;DHT22;2160;51.172;6.808;2023-08-06T19:40:29;16.20;99.90
4293;DHT22;2160;51.172;6.808;2023-08-06T19:42:56;16.20;99.90
4293;DHT22;2160;51.172;6.808;2023-08-06T19:45:23;16.20;99.90
4293;DHT22;2160;51.172;6.808;2023-08-06T19:47:49;16.10;99.90
4293;DHT22;2160;51.172;6.808;2023-08-06T19:50:16;16.20;99.90
4293;DHT22;2160;51.172;6.808;2023-08-06T19:52:43;16.30;99.90
4293;DHT22;2160;51.172;6.808;2023-08-06T19:55:13;16.30;99.90
4293;DHT22;2160;51.172;6.808;2023-08-06T19:57:40;16.30;99.90
4293;DHT22;2160;51.172;6.808;2023-08-06T20:00:07;16.30;99.90
4293;DHT22;2160;51.172;6.808;2023-08-06T20:02:38;16.30;99.90
4293;DHT22;2160;51.172;6.808;2023-08-06T20:05:05;16.30;99.90